Time;durP1;ratioP1;P1;durP2;ratioP2;P2;SDS_P1;SDS_P2;PMS_P1;PMS_P2;Temp;Humidity;BMP_temperature;BMP_pressure;BME280_temperature;BME280_humidity;BME280_pressure;Samples;Min_cycle;Max_cycle;Signal;HPM_P1;HPM_P2
2021/12/19 00:00:22;;;;;;;31.97;23.07;;;;;;;3.71;100.00;102105.00;5019116;28;20295;-56
2021/12/19 00:03:08;;;;;;;;;;;;;;;;;;;;;
2021/12/19 00:10:55;;;;;;;29.60;22.13;;;;;;;3.74;100.00;102087.25;5024105;28;20214;-55
2021/12/19 00:13:26;;;;;;;28.77;21.67;;;;;;;3.73;100.00;102082.91;5022817;28;20245;-55
2021/12/19 00:15:54;;;;;;;29.07;21.87;;;;;;;3.73;100.00;102083.81;5023007;28;20247;-55
2021/12/19 00:18:20;;;;;;;27.17;20.30;;;;;;;3.74;100.00;102072.78;5023711;28;20219;-55
2021/12/19 00:20:45;;;;;;;29.30;21.00;;;;;;;3.73;100.00;102071.00;5019760;28;20201;-55
2021/12/19 00:23:12;;;;;;;29.37;20.70;;;;;;;3.75;100.00;102069.41;5022867;28;20536;-55
2021/12/19 00:25:37;;;;;;;28.20;21.13;;;;;;;3.76;100.00;102065.16;5025293;28;20261;-55
2021/12/19 00:28:03;;;;;;;28.17;21.87;;;;;;;3.76;100.00;102068.59;5024413;28;20219;-56
2021/12/19 00:30:29;;;;;;;29.60;21.27;;;;;;;3.76;100.00;102073.72;5027487;28;20314;-55
2021/12/19 00:32:54;;;;;;;27.60;21.77;;;;;;;3.77;100.00;102069.47;5025407;28;20195;-55
2021/12/19 00:35:19;;;;;;;27.17;20.23;;;;;;;3.77;100.00;102059.22;5020189;28;20195;-55
2021/12/19 00:37:45;;;;;;;28.57;20.23;;;;;;;3.79;100.00;102062.75;5024359;28;20215;-55
2021/12/19 00:40:11;;;;;;;26.43;19.03;;;;;;;3.80;100.00;102065.34;5019476;28;20187;-55
2021/12/19 00:42:37;;;;;;;28.23;20.80;;;;;;;3.85;100.00;102062.16;5023308;28;20677;-55
2021/12/19 00:45:16;;;;;;;26.77;20.33;;;;;;;3.82;100.00;102050.09;5023992;28;20259;-55
2021/12/19 00:47:45;;;;;;;24.33;19.00;;;;;;;3.83;100.00;102056.06;5024468;28;20699;-54
2021/12/19 00:50:12;;;;;;;24.53;18.27;;;;;;;3.84;100.00;102047.59;5025365;28;20647;-55
2021/12/19 00:52:38;;;;;;;25.73;18.90;;;;;;;3.85;100.00;102054.47;5024868;28;20196;-55
2021/12/19 00:55:04;;;;;;;28.10;20.27;;;;;;;3.83;100.00;102046.72;5031294;28;20700;-54
2021/12/19 00:57:29;;;;;;;27.27;20.97;;;;;;;3.83;100.00;102048.38;5025238;28;20204;-55
2021/12/19 00:59:55;;;;;;;26.13;19.70;;;;;;;3.83;100.00;102048.38;5026964;28;20269;-57
2021/12/19 01:02:20;;;;;;;26.27;19.13;;;;;;;3.84;100.00;102045.03;5025214;28;20210;-54
2021/12/19 01:04:46;;;;;;;29.70;21.23;;;;;;;3.81;100.00;102044.06;5023797;28;20216;-56
2021/12/19 01:07:11;;;;;;;32.33;22.13;;;;;;;3.78;100.00;102040.50;5022751;28;20472;-55
2021/12/19 01:09:36;;;;;;;28.33;20.33;;;;;;;3.75;100.00;102041.22;5024573;28;20229;-56
2021/12/19 01:12:03;;;;;;;30.67;21.23;;;;;;;3.74;100.00;102043.69;5022592;28;20245;-57
2021/12/19 01:14:28;;;;;;;30.33;21.70;;;;;;;3.70;100.00;102042.69;5024440;28;20278;-59
2021/12/19 01:16:55;;;;;;;26.90;20.50;;;;;;;3.70;100.00;102039.25;5020718;28;20553;-56
2021/12/19 01:19:20;;;;;;;27.37;20.17;;;;;;;3.70;100.00;102029.88;5019020;28;20612;-57
2021/12/19 01:21:46;;;;;;;27.83;19.67;;;;;;;3.70;100.00;102034.16;5023945;28;20195;-54
2021/12/19 01:24:11;;;;;;;26.60;20.43;;;;;;;3.69;100.00;102024.72;5023218;28;20227;-55
2021/12/19 01:26:37;;;;;;;28.00;19.40;;;;;;;3.70;100.00;102029.88;5024615;28;20207;-55
2021/12/19 01:29:03;;;;;;;27.30;20.43;;;;;;;3.72;100.00;102033.41;5018279;28;20192;-57
2021/12/19 01:31:28;;;;;;;24.30;18.70;;;;;;;3.71;100.00;102031.66;5020262;28;20195;-54
2021/12/19 01:33:53;;;;;;;26.10;19.50;;;;;;;3.72;100.00;102030.84;5025927;28;20176;-54
2021/12/19 01:36:20;;;;;;;24.00;18.23;;;;;;;3.73;100.00;102030.03;5027942;28;20261;-55
2021/12/19 01:38:45;;;;;;;24.07;17.83;;;;;;;3.75;100.00;102022.41;5029249;28;20183;-55
2021/12/19 01:41:11;;;;;;;24.83;18.77;;;;;;;3.73;100.00;102027.47;5031423;28;20225;-55
2021/12/19 01:43:36;;;;;;;26.27;19.30;;;;;;;3.72;100.00;102033.41;5027031;28;20345;-54
2021/12/19 01:46:02;;;;;;;25.57;18.93;;;;;;;3.71;100.00;102031.66;5026562;28;20269;-55
2021/12/19 01:48:28;;;;;;;23.43;18.30;;;;;;;3.72;100.00;102030.84;5026259;28;20280;-54
2021/12/19 01:50:53;;;;;;;26.37;19.40;;;;;;;3.72;100.00;102033.41;5024778;28;20702;-54
2021/12/19 01:53:19;;;;;;;25.17;18.43;;;;;;;3.74;100.00;102036.91;5025402;28;20179;-54
2021/12/19 01:55:47;;;;;;;26.60;19.07;;;;;;;3.72;100.00;102029.94;5024788;28;20561;-55
2021/12/19 01:58:13;;;;;;;27.53;19.77;;;;;;;3.68;100.00;102026.38;5021721;28;20208;-55
2021/12/19 02:00:42;;;;;;;26.47;19.07;;;;;;;3.67;100.00;102027.16;5026235;28;20193;-55
2021/12/19 02:03:10;;;;;;;23.53;17.70;;;;;;;3.63;100.00;102031.28;5025863;28;20600;-54
2021/12/19 02:05:36;;;;;;;26.07;18.80;;;;;;;3.59;100.00;102025.94;5023215;28;20207;-55
2021/12/19 02:08:03;;;;;;;25.57;18.03;;;;;;;3.52;100.00;102027.34;5023195;28;20753;-55
2021/12/19 02:10:30;;;;;;;25.20;18.63;;;;;;;3.50;100.00;102024.69;5025068;28;20270;-55
2021/12/19 02:12:58;;;;;;;25.73;18.27;;;;;;;3.48;100.00;102023.72;5020959;28;20191;-55
2021/12/19 02:15:26;;;;;;;23.23;17.43;;;;;;;3.49;100.00;102019.50;5023208;28;20207;-55
2021/12/19 02:17:55;;;;;;;25.80;18.13;;;;;;;3.46;100.00;102022.81;5021140;28;20204;-55
2021/12/19 02:20:22;;;;;;;26.10;18.53;;;;;;;3.46;100.00;102027.91;5018956;28;21702;-55
2021/12/19 02:22:48;;;;;;;25.60;18.10;;;;;;;3.45;100.00;102027.81;5015604;28;20191;-55
2021/12/19 02:25:16;;;;;;;23.13;17.27;;;;;;;3.42;100.00;102023.44;5018652;28;20208;-55
2021/12/19 02:27:43;;;;;;;22.30;15.80;;;;;;;3.42;100.00;102025.13;5021508;28;20560;-55
2021/12/19 02:30:09;;;;;;;23.43;16.17;;;;;;;3.41;100.00;102023.34;5023319;28;20439;-55
2021/12/19 02:32:37;;;;;;;23.57;16.47;;;;;;;3.41;100.00;102011.44;5014997;28;20279;-55
2021/12/19 02:35:06;;;;;;;21.63;15.53;;;;;;;3.43;100.00;102016.63;5023377;28;20262;-55
2021/12/19 02:48:13;;;;;;;23.93;17.37;;;;;;;3.37;100.00;102006.13;5018118;28;20304;-55
2021/12/19 02:50:50;;;;;;;21.20;16.03;;;;;;;3.39;100.00;102001.97;5020271;28;20188;-57
2021/12/19 02:53:30;;;;;;;20.53;15.03;;;;;;;3.40;100.00;102001.16;5021793;28;20849;-57
2021/12/19 02:55:56;;;;;;;22.30;15.93;;;;;;;3.41;100.00;101992.66;5022765;28;20179;-55
2021/12/19 02:58:21;;;;;;;20.30;15.60;;;;;;;3.38;100.00;101993.38;5022278;28;20207;-55
2021/12/19 03:00:48;;;;;;;21.83;15.60;;;;;;;3.38;100.00;101995.09;5024327;28;20215;-55
2021/12/19 03:03:14;;;;;;;18.83;13.90;;;;;;;3.37;100.00;101996.75;5022358;28;20517;-57
2021/12/19 03:05:39;;;;;;;18.87;13.87;;;;;;;3.35;100.00;101998.34;5029125;28;20213;-55
2021/12/19 03:08:08;;;;;;;17.80;14.07;;;;;;;3.36;100.00;101989.88;5025859;28;20237;-54
2021/12/19 03:13:35;;;;;;;16.50;12.27;;;;;;;3.32;100.00;101985.44;5022091;28;20195;-55
2021/12/19 03:18:45;;;;;;;14.53;12.27;;;;;;;3.37;100.00;101985.66;5039132;28;20266;-55
2021/12/19 03:21:14;;;;;;;13.73;11.13;;;;;;;3.35;100.00;101990.66;5034530;28;20639;-57
2021/12/19 03:23:40;;;;;;;14.60;12.13;;;;;;;3.34;100.00;101987.25;5025098;28;20186;-57
2021/12/19 03:26:06;;;;;;;12.70;11.27;;;;;;;3.32;100.00;101978.63;5022334;28;20278;-56
2021/12/19 03:28:32;;;;;;;12.47;11.00;;;;;;;3.31;100.00;101970.88;5020424;28;20215;-57
2021/12/19 03:30:57;;;;;;;14.80;11.57;;;;;;;3.30;100.00;101969.97;5017451;28;20184;-55
2021/12/19 03:33:23;;;;;;;12.40;10.47;;;;;;;3.31;100.00;101971.75;5023794;28;20195;-57
2021/12/19 03:35:48;;;;;;;12.87;10.00;;;;;;;3.31;100.00;101969.19;5021108;28;20184;-55
2021/12/19 03:38:16;;;;;;;12.33;9.97;;;;;;;3.31;100.00;101969.19;5020124;28;20218;-57
2021/12/19 03:40:50;;;;;;;14.40;11.17;;;;;;;3.31;100.00;101966.63;5021163;28;20191;-55
2021/12/19 03:43:21;;;;;;;13.63;12.20;;;;;;;3.29;100.00;101975.03;5022159;28;20751;-54
2021/12/19 03:45:47;;;;;;;13.73;11.47;;;;;;;3.25;100.00;101975.69;5024152;28;20199;-56
2021/12/19 03:48:16;;;;;;;13.07;11.20;;;;;;;3.24;100.00;101966.25;5018932;28;20219;-57
2021/12/19 03:50:49;;;;;;;13.10;11.00;;;;;;;3.23;100.00;101969.63;5020034;28;20195;-54
2021/12/19 03:53:17;;;;;;;13.50;10.73;;;;;;;3.21;100.00;101972.09;5021272;28;20274;-54
2021/12/19 03:55:42;;;;;;;11.43;9.83;;;;;;;3.18;100.00;101966.84;5023465;28;20187;-54
2021/12/19 03:58:09;;;;;;;11.50;9.47;;;;;;;3.17;100.00;101959.97;5025798;28;20244;-56
2021/12/19 04:00:35;;;;;;;11.00;9.67;;;;;;;3.13;100.00;101956.38;5020644;28;20628;-55
2021/12/19 04:03:05;;;;;;;10.13;9.07;;;;;;;3.12;100.00;101961.41;5026192;28;20192;-54
2021/12/19 04:05:31;;;;;;;11.60;10.10;;;;;;;3.14;100.00;101962.38;5021992;28;20245;-55
2021/12/19 04:07:57;;;;;;;11.97;9.43;;;;;;;3.13;100.00;101955.50;5023139;28;20686;-54
2021/12/19 04:10:24;;;;;;;10.43;8.93;;;;;;;3.13;100.00;101956.38;5032114;28;20629;-55
2021/12/19 04:12:50;;;;;;;10.83;8.77;;;;;;;3.12;100.00;101956.28;5024003;28;20222;-55
2021/12/19 04:15:16;;;;;;;9.83;8.83;;;;;;;3.11;100.00;101957.09;5028099;28;21417;-56
2021/12/19 04:17:43;;;;;;;11.80;9.37;;;;;;;3.11;100.00;101946.88;5031219;28;20215;-55
2021/12/19 04:20:09;;;;;;;12.30;10.83;;;;;;;3.11;100.00;101951.97;5027415;28;20192;-56
2021/12/19 04:22:35;;;;;;;13.47;10.50;;;;;;;3.07;100.00;101942.44;5031483;28;20218;-54
2021/12/19 04:25:00;;;;;;;11.00;9.80;;;;;;;3.06;100.00;101941.53;5027160;28;20226;-55
2021/12/19 04:27:27;;;;;;;12.60;9.70;;;;;;;3.08;100.00;101944.19;5023843;28;20216;-53
2021/12/19 04:29:53;;;;;;;10.43;8.60;;;;;;;3.08;100.00;101939.94;5025405;28;20678;-56
2021/12/19 04:32:24;;;;;;;9.97;8.50;;;;;;;3.09;100.00;101940.81;5025060;28;20786;-55
2021/12/19 04:34:50;;;;;;;11.30;9.33;;;;;;;3.10;100.00;101937.47;5025305;28;20218;-54
2021/12/19 04:51:14;;;;;;;11.17;9.00;;;;;;;3.01;100.00;101931.09;5019714;28;20685;-54
2021/12/19 04:56:42;;;;;;;9.13;8.17;;;;;;;3.00;100.00;101931.03;5021300;28;20559;-55
2021/12/19 04:59:24;;;;;;;9.97;8.03;;;;;;;2.98;100.00;101922.38;5021588;28;20188;-54
2021/12/19 05:02:40;;;;;;;9.63;7.80;;;;;;;2.98;100.00;101922.38;5022632;28;20199;-54
2021/12/19 05:05:16;;;;;;;9.33;7.53;;;;;;;2.96;100.00;101924.84;5008880;28;20278;-55
2021/12/19 05:15:38;;;;;;;8.67;7.77;;;;;;;2.89;100.00;101920.25;5018278;28;20242;-54
2021/12/19 05:18:08;;;;;;;8.90;7.40;;;;;;;2.85;100.00;101921.78;5021619;28;20215;-54
2021/12/19 05:20:35;;;;;;;9.27;7.93;;;;;;;2.86;100.00;101921.00;5023921;28;20196;-55
2021/12/19 05:23:18;;;;;;;9.10;7.37;;;;;;;2.84;100.00;101921.72;5018822;28;20241;-54
2021/12/19 05:25:44;;;;;;;8.10;7.13;;;;;;;2.84;100.00;101920.03;5024377;28;20493;-56
2021/12/19 05:28:09;;;;;;;9.67;8.13;;;;;;;2.85;100.00;101920.91;5026156;28;20207;-54
2021/12/19 05:30:35;;;;;;;8.67;7.50;;;;;;;2.85;100.00;101920.91;5014833;28;20218;-55
2021/12/19 05:33:02;;;;;;;9.13;7.90;;;;;;;2.84;100.00;101914.03;5021208;28;20198;-55
2021/12/19 05:44:08;;;;;;;8.03;7.20;;;;;;;2.85;100.00;101913.22;5020268;28;20190;-55
2021/12/19 05:46:29;;;;;;;9.10;7.30;;;;;;;2.87;100.00;101917.59;5017971;28;20206;-55
2021/12/19 05:48:54;;;;;;;8.10;7.30;;;;;;;2.87;100.00;101912.50;5018720;28;20555;-54
2021/12/19 05:51:20;;;;;;;8.63;7.73;;;;;;;2.87;100.00;101925.28;5022784;28;20184;-55
2021/12/19 05:53:46;;;;;;;8.03;7.23;;;;;;;2.87;100.00;101915.06;5021545;28;20198;-55
2021/12/19 05:56:11;;;;;;;8.37;7.43;;;;;;;2.88;100.00;101918.50;5020211;28;20187;-55
2021/12/19 05:58:36;;;;;;;9.63;7.10;;;;;;;2.91;100.00;101905.88;5021510;28;20211;-54
2021/12/19 06:01:03;;;;;;;7.70;6.83;;;;;;;2.91;100.00;101905.88;5019951;28;20180;-54
2021/12/19 06:03:29;;;;;;;8.47;7.60;;;;;;;2.89;100.00;101899.81;5021713;28;20219;-55
2021/12/19 06:05:54;;;;;;;9.80;7.50;;;;;;;2.90;100.00;101906.69;5018215;28;20888;-55
2021/12/19 06:08:19;;;;;;;8.57;7.17;;;;;;;2.87;100.00;101899.72;5020597;28;20215;-54
2021/12/19 06:10:45;;;;;;;7.97;7.10;;;;;;;2.89;100.00;101892.13;5021418;28;20671;-57
2021/12/19 06:13:10;;;;;;;8.33;7.40;;;;;;;2.89;100.00;101889.56;5019039;28;20192;-55
2021/12/19 06:15:36;;;;;;;8.57;7.63;;;;;;;2.90;100.00;101874.28;5024715;28;20183;-55
2021/12/19 06:18:02;;;;;;;8.87;7.07;;;;;;;2.90;100.00;101871.72;5025757;28;20215;-54
2021/12/19 06:20:28;;;;;;;8.10;7.30;;;;;;;2.89;100.00;101876.78;5019712;28;20649;-54
2021/12/19 06:22:54;;;;;;;8.10;7.07;;;;;;;2.90;100.00;101876.00;5022833;28;20194;-55
2021/12/19 06:25:19;;;;;;;8.77;7.73;;;;;;;2.91;100.00;101862.41;5016120;28;20567;-55
2021/12/19 06:27:45;;;;;;;9.17;7.37;;;;;;;2.89;100.00;101853.78;5019822;28;20235;-55
2021/12/19 06:30:11;;;;;;;7.83;7.03;;;;;;;2.88;100.00;101862.25;5016336;28;20640;-54
2021/12/19 06:32:37;;;;;;;10.17;7.30;;;;;;;2.85;100.00;101855.31;5024138;28;20187;-56
2021/12/19 06:35:07;;;;;;;8.53;7.00;;;;;;;2.84;100.00;101857.78;5022984;28;20236;-54
2021/12/19 06:37:38;;;;;;;7.77;6.97;;;;;;;2.84;100.00;101863.78;5026638;28;20804;-56
2021/12/19 06:40:06;;;;;;;9.70;7.40;;;;;;;2.83;100.00;101862.03;5022023;28;20652;-54
2021/12/19 06:42:31;;;;;;;8.67;7.67;;;;;;;2.83;100.00;101856.91;5026367;28;20279;-55
2021/12/19 06:44:57;;;;;;;9.07;8.17;;;;;;;2.83;100.00;101861.13;5025866;28;20294;-54
2021/12/19 06:47:22;;;;;;;9.57;8.67;;;;;;;2.81;100.00;101858.53;5014446;28;20232;-55
2021/12/19 06:49:48;;;;;;;9.57;8.27;;;;;;;2.81;100.00;101855.97;5017529;28;20227;-56
2021/12/19 06:52:13;;;;;;;9.10;8.03;;;;;;;2.82;100.00;101860.28;5021295;28;22182;-55
2021/12/19 06:54:38;;;;;;;8.83;7.90;;;;;;;2.84;100.00;101862.91;5012408;28;20586;-55
2021/12/19 06:57:04;;;;;;;9.30;8.03;;;;;;;2.83;100.00;101854.34;5026577;28;20709;-55
2021/12/19 06:59:29;;;;;;;8.07;6.93;;;;;;;2.84;100.00;101861.22;5021013;28;20270;-54
2021/12/19 07:01:55;;;;;;;11.20;10.00;;;;;;;2.83;100.00;101858.59;5027355;28;20198;-55
2021/12/19 07:04:20;;;;;;;11.57;10.37;;;;;;;2.83;100.00;101858.59;5025113;28;20218;-55
2021/12/19 07:06:45;;;;;;;10.80;9.70;;;;;;;2.82;100.00;101859.38;5026429;28;20781;-55
2021/12/19 07:09:11;;;;;;;12.63;11.33;;;;;;;2.82;100.00;101852.59;5019167;28;20194;-55
2021/12/19 07:11:36;;;;;;;11.10;9.83;;;;;;;2.82;100.00;101856.81;5025838;28;20630;-55
2021/12/19 07:14:02;;;;;;;15.00;13.40;;;;;;;2.82;100.00;101852.59;5025672;28;20191;-55
2021/12/19 07:16:27;;;;;;;13.70;11.53;;;;;;;2.84;100.00;101852.66;5026734;28;20195;-54
2021/12/19 07:18:53;;;;;;;13.43;11.50;;;;;;;2.85;100.00;101854.41;5020810;28;20551;-57
2021/12/19 07:21:18;;;;;;;13.10;11.23;;;;;;;2.87;100.00;101855.38;5021274;28;20219;-54
2021/12/19 07:23:44;;;;;;;15.23;13.53;;;;;;;2.87;100.00;101851.13;5023067;28;20667;-55
2021/12/19 07:26:11;;;;;;;16.87;15.07;;;;;;;2.90;100.00;101851.28;5026313;28;20192;-54
2021/12/19 07:28:40;;;;;;;15.60;14.00;;;;;;;2.91;100.00;101857.28;5026856;28;20233;-56
2021/12/19 07:31:05;;;;;;;13.27;11.93;;;;;;;2.91;100.00;101857.28;5025305;28;20194;-56
2021/12/19 07:33:30;;;;;;;15.97;13.70;;;;;;;2.90;100.00;101850.41;5017564;28;20189;-56
2021/12/19 07:35:59;;;;;;;15.13;13.27;;;;;;;2.88;100.00;101863.09;5023581;28;20222;-55
2021/12/19 07:38:40;;;;;;;14.90;13.33;;;;;;;2.86;100.00;101853.63;5026274;28;20230;-54
2021/12/19 07:41:05;;;;;;;14.17;12.20;;;;;;;2.86;100.00;101869.84;5025925;28;20194;-54
2021/12/19 07:43:31;;;;;;;12.50;11.20;;;;;;;2.86;100.00;101864.75;5024551;28;20602;-56
2021/12/19 07:45:56;;;;;;;15.93;14.23;;;;;;;2.87;100.00;101868.16;5025501;28;20551;-57
2021/12/19 07:48:23;;;;;;;13.47;11.30;;;;;;;2.88;100.00;101868.22;5025108;28;20223;-54
2021/12/19 07:50:48;;;;;;;15.20;13.03;;;;;;;2.92;100.00;101861.59;5023951;28;20207;-57
2021/12/19 07:53:13;;;;;;;27.07;23.13;;;;;;;2.94;100.00;101854.00;5021496;28;20578;-54
2021/12/19 07:55:39;;;;;;;20.20;17.37;;;;;;;2.95;100.00;101854.03;5023866;28;20179;-55
2021/12/19 07:58:04;;;;;;;13.63;12.00;;;;;;;2.99;100.00;101858.50;5032322;28;20225;-55
2021/12/19 08:00:30;;;;;;;12.57;11.00;;;;;;;3.02;100.00;101850.13;5049464;28;20210;-55
2021/12/19 08:02:55;;;;;;;9.37;8.37;;;;;;;3.05;100.00;101843.47;5046596;28;20238;-54
2021/12/19 08:05:23;;;;;;;9.50;7.50;;;;;;;3.07;100.00;101840.09;5026317;28;20215;-54
2021/12/19 08:07:55;;;;;;;7.77;6.50;;;;;;;3.07;100.00;101840.09;5016016;28;20207;-55
2021/12/19 08:12:49;;;;;;;6.40;5.50;;;;;;;3.08;100.00;101841.88;5020487;28;20192;-54
2021/12/19 08:15:15;;;;;;;6.63;5.90;;;;;;;3.09;100.00;101847.03;5019591;28;20790;-56
2021/12/19 08:17:40;;;;;;;6.13;5.50;;;;;;;3.11;100.00;101848.00;5018680;28;20211;-55
2021/12/19 08:20:09;;;;;;;5.77;5.17;;;;;;;3.12;100.00;101852.31;5021651;28;20206;-57
2021/12/19 08:22:35;;;;;;;7.60;5.67;;;;;;;3.16;100.00;101856.78;5019544;28;20569;-57
2021/12/19 08:25:00;;;;;;;6.43;5.73;;;;;;;3.18;100.00;101849.16;5018632;28;20200;-55
2021/12/19 08:27:26;;;;;;;5.87;5.27;;;;;;;3.20;100.00;101848.41;5023508;28;20745;-55
2021/12/19 08:29:54;;;;;;;6.07;5.23;;;;;;;3.22;100.00;101845.94;5026251;28;20402;-55
2021/12/19 08:32:21;;;;;;;6.33;5.27;;;;;;;3.25;100.00;101840.06;5025004;28;20242;-55
2021/12/19 08:34:46;;;;;;;6.70;5.67;;;;;;;3.28;100.00;101841.09;5025978;28;20501;-54
2021/12/19 08:37:11;;;;;;;6.90;5.30;;;;;;;3.31;100.00;101840.38;5021434;28;21217;-55
2021/12/19 08:39:38;;;;;;;5.97;5.27;;;;;;;3.33;100.00;101837.06;5026184;28;20180;-55
2021/12/19 08:42:06;;;;;;;6.43;5.50;;;;;;;3.34;100.00;101836.25;5029295;28;20545;-55
2021/12/19 08:44:32;;;;;;;6.93;5.77;;;;;;;3.39;100.00;101843.28;5026733;28;20245;-55
2021/12/19 08:46:57;;;;;;;6.47;5.03;;;;;;;3.41;100.00;101839.97;5033426;28;20222;-55
2021/12/19 08:49:23;;;;;;;6.30;5.70;;;;;;;3.44;100.00;101839.22;5030055;28;20188;-55
2021/12/19 08:51:48;;;;;;;5.90;5.20;;;;;;;3.44;100.00;101835.00;5025543;28;20182;-55
2021/12/19 08:54:13;;;;;;;6.10;5.13;;;;;;;3.48;100.00;101842.00;5026302;28;20340;-55
2021/12/19 08:56:39;;;;;;;5.87;5.10;;;;;;;3.49;100.00;101823.25;5028791;28;20215;-55
2021/12/19 08:59:05;;;;;;;5.50;5.00;;;;;;;3.51;100.00;101824.22;5027422;28;20192;-55
2021/12/19 09:01:31;;;;;;;6.67;5.70;;;;;;;3.53;100.00;101826.88;5029551;28;20649;-55
2021/12/19 09:03:57;;;;;;;6.43;5.70;;;;;;;3.56;100.00;101832.09;5032334;28;20678;-55
2021/12/19 09:06:23;;;;;;;6.10;5.50;;;;;;;3.57;100.00;101826.16;5034148;28;20199;-55
2021/12/19 09:08:48;;;;;;;5.77;5.17;;;;;;;3.58;100.00;101814.25;5036756;28;20206;-55
2021/12/19 09:11:14;;;;;;;7.13;6.00;;;;;;;3.61;100.00;101825.50;5032334;28;20203;-55
2021/12/19 09:13:39;;;;;;;6.10;5.50;;;;;;;3.63;100.00;101820.47;5028790;28;20659;-57
2021/12/19 09:16:04;;;;;;;6.03;5.43;;;;;;;3.66;100.00;101818.91;5030827;28;20188;-55
2021/12/19 09:18:30;;;;;;;5.67;5.10;;;;;;;3.72;100.00;101814.84;5033732;28;20298;-55
2021/12/19 09:20:56;;;;;;;5.93;5.33;;;;;;;3.77;100.00;101819.41;5028716;28;20480;-54
2021/12/19 09:23:22;;;;;;;6.10;5.50;;;;;;;3.79;100.00;101815.19;5027939;28;20221;-54
2021/12/19 09:25:47;;;;;;;6.27;5.67;;;;;;;3.83;100.00;101816.22;5026674;28;20302;-55
2021/12/19 09:28:13;;;;;;;6.20;5.60;;;;;;;3.87;100.00;101817.22;5031080;28;20213;-55
2021/12/19 09:30:41;;;;;;;6.53;5.53;;;;;;;3.90;100.00;101825.03;5036559;28;20195;-56
2021/12/19 09:33:06;;;;;;;6.53;5.87;;;;;;;3.90;100.00;101828.47;5032048;28;20270;-54
2021/12/19 09:35:32;;;;;;;6.13;5.50;;;;;;;3.92;100.00;101833.66;5034329;28;20643;-54
2021/12/19 09:37:57;;;;;;;6.37;5.73;;;;;;;3.95;100.00;101832.13;5032400;28;20214;-55
2021/12/19 09:40:32;;;;;;;6.33;5.53;;;;;;;3.96;100.00;101841.56;5030145;28;20663;-54
2021/12/19 09:43:01;;;;;;;5.73;5.13;;;;;;;4.01;100.00;101840.88;5029634;28;20276;-56
2021/12/19 09:45:28;;;;;;;6.43;5.83;;;;;;;4.01;100.00;101830.63;5029159;28;20576;-55
2021/12/19 09:47:53;;;;;;;6.93;6.23;;;;;;;4.00;100.00;101839.13;5026855;28;20227;-54
2021/12/19 09:50:19;;;;;;;6.67;5.60;;;;;;;4.01;100.00;101836.63;5024708;28;20196;-55
2021/12/19 09:52:46;;;;;;;6.30;5.70;;;;;;;4.03;100.00;101828.97;5029636;28;20631;-55
2021/12/19 09:55:16;;;;;;;6.13;5.47;;;;;;;4.06;100.00;101822.34;5030476;28;20660;-54
2021/12/19 09:57:41;;;;;;;7.43;6.73;;;;;;;4.12;100.00;101814.03;5031575;28;20219;-55
2021/12/19 10:00:07;;;;;;;6.63;5.97;;;;;;;4.15;100.00;101806.47;5024559;28;20195;-56
2021/12/19 10:02:32;;;;;;;6.10;5.50;;;;;;;4.19;100.00;101812.59;5028338;28;20571;-55
2021/12/19 10:05:14;;;;;;;6.87;6.20;;;;;;;4.22;100.00;101808.47;5029033;28;20219;-55
2021/12/19 10:08:04;;;;;;;6.37;5.77;;;;;;;4.26;100.00;101804.34;5029298;28;20229;-55
2021/12/19 10:10:44;;;;;;;6.73;6.03;;;;;;;4.28;100.00;101792.47;5028790;28;20298;-55
2021/12/19 10:13:10;;;;;;;5.87;5.27;;;;;;;4.31;100.00;101791.72;5022262;28;20228;-56
2021/12/19 10:15:38;;;;;;;6.17;5.53;;;;;;;4.34;100.00;101786.72;5029204;28;20196;-55
2021/12/19 10:18:06;;;;;;;6.50;5.90;;;;;;;4.36;100.00;101777.41;5030790;28;20214;-55
2021/12/19 10:20:47;;;;;;;5.77;5.10;;;;;;;4.37;100.00;101774.03;5027645;28;20216;-55
2021/12/19 10:23:18;;;;;;;6.53;5.87;;;;;;;4.37;100.00;101769.78;5029866;28;20192;-55
2021/12/19 10:25:54;;;;;;;6.90;6.13;;;;;;;4.39;100.00;101772.41;5026917;28;20243;-54
2021/12/19 10:28:20;;;;;;;7.10;5.90;;;;;;;4.41;100.00;101768.22;5028343;28;20215;-55
2021/12/19 10:30:47;;;;;;;6.73;6.07;;;;;;;4.45;100.00;101751.25;5027496;28;20543;-57
2021/12/19 10:33:18;;;;;;;6.70;6.07;;;;;;;4.48;100.00;101752.25;5029741;28;20202;-56
2021/12/19 10:35:50;;;;;;;6.57;5.97;;;;;;;4.48;100.00;101752.25;5028680;28;20180;-56
2021/12/19 10:38:15;;;;;;;6.50;5.80;;;;;;;4.47;100.00;101752.19;5028539;28;20207;-55
2021/12/19 10:40:48;;;;;;;6.80;6.13;;;;;;;4.48;100.00;101749.69;5030788;28;20199;-57
2021/12/19 10:43:17;;;;;;;7.37;6.67;;;;;;;4.49;100.00;101751.44;5024481;28;20195;-57
2021/12/19 10:45:52;;;;;;;6.57;5.87;;;;;;;4.51;100.00;101742.13;5025926;28;20282;-55
2021/12/19 10:48:20;;;;;;;6.80;6.10;;;;;;;4.53;100.00;101739.63;5017253;28;20675;-55
2021/12/19 10:50:45;;;;;;;7.53;6.67;;;;;;;4.52;100.00;101740.44;5022037;28;20196;-56
2021/12/19 10:53:12;;;;;;;6.13;5.53;;;;;;;4.53;100.00;101739.63;5021101;28;20369;-55
2021/12/19 10:55:40;;;;;;;6.57;5.97;;;;;;;4.55;100.00;101730.28;5022349;28;20594;-55
2021/12/19 10:58:21;;;;;;;6.60;5.90;;;;;;;4.56;100.00;101725.25;5020688;28;20211;-54
2021/12/19 11:01:05;;;;;;;6.50;5.90;;;;;;;4.60;100.00;101720.25;5021630;28;20237;-56
2021/12/19 11:03:43;;;;;;;6.13;5.07;;;;;;;4.63;100.00;101718.66;5022666;28;20191;-55
2021/12/19 11:06:23;;;;;;;5.93;5.27;;;;;;;4.65;100.00;101700.75;5018432;28;20218;-54
2021/12/19 11:08:51;;;;;;;5.80;5.20;;;;;;;4.67;100.00;101697.44;5013762;28;20188;-57
2021/12/19 11:11:35;;;;;;;5.83;5.33;;;;;;;4.65;100.00;101688.81;5021125;28;20206;-57
2021/12/19 11:14:03;;;;;;;6.13;5.53;;;;;;;4.64;100.00;101687.06;5022439;28;20195;-56
2021/12/19 11:16:29;;;;;;;5.63;5.07;;;;;;;4.64;100.00;101681.06;5020742;28;20202;-54
2021/12/19 11:18:54;;;;;;;5.90;5.30;;;;;;;4.63;100.00;101687.88;5021793;28;20191;-57
2021/12/19 11:21:19;;;;;;;5.33;4.83;;;;;;;4.63;100.00;101677.63;5026191;28;20190;-57
2021/12/19 11:23:46;;;;;;;6.00;5.40;;;;;;;4.66;100.00;101675.19;5020417;28;20203;-55
2021/12/19 11:26:12;;;;;;;5.77;5.20;;;;;;;4.66;100.00;101671.72;5017671;28;20191;-55
2021/12/19 11:28:38;;;;;;;5.67;5.07;;;;;;;4.65;100.00;101669.97;5018522;28;20277;-57
2021/12/19 11:31:05;;;;;;;5.87;5.27;;;;;;;4.66;100.00;101664.94;5017126;28;20669;-55
2021/12/19 11:34:08;;;;;;;5.53;4.97;;;;;;;4.65;100.00;101650.34;5026531;28;20667;-55
2021/12/19 11:36:39;;;;;;;6.00;5.40;;;;;;;4.62;100.00;101657.94;5024208;28;20236;-55
2021/12/19 11:39:06;;;;;;;5.53;5.03;;;;;;;4.60;100.00;101646.75;5026557;28;20605;-55
2021/12/19 11:41:32;;;;;;;5.13;4.63;;;;;;;4.61;100.00;101648.50;5021207;28;20400;-55
2021/12/19 11:44:02;;;;;;;5.20;4.60;;;;;;;4.63;100.00;101648.53;5021442;28;20195;-54
2021/12/19 11:46:59;;;;;;;4.73;4.30;;;;;;;4.63;100.00;101644.28;5021385;28;20187;-55
2021/12/19 11:49:27;;;;;;;5.30;4.73;;;;;;;4.61;100.00;101640.78;5012500;28;20203;-55
2021/12/19 11:52:30;;;;;;;5.67;5.13;;;;;;;4.63;100.00;101628.03;5022640;28;20202;-55
2021/12/19 11:55:14;;;;;;;5.23;4.67;;;;;;;4.62;100.00;101623.69;5018366;28;20887;-55
2021/12/19 11:58:03;;;;;;;5.13;4.70;;;;;;;4.60;100.00;101625.38;5021733;28;20203;-55
2021/12/19 12:00:33;;;;;;;6.10;4.80;;;;;;;4.57;100.00;101610.72;5021344;28;20222;-56
2021/12/19 12:03:25;;;;;;;5.47;4.97;;;;;;;4.56;100.00;101609.84;5022309;28;20262;-55
2021/12/19 12:05:53;;;;;;;5.70;5.10;;;;;;;4.57;100.00;101609.03;5018623;28;20691;-55
2021/12/19 12:08:24;;;;;;;5.50;5.00;;;;;;;4.61;100.00;101601.47;5021913;28;20566;-56
2021/12/19 12:13:28;;;;;;;5.53;5.03;;;;;;;4.61;100.00;101588.66;5021274;28;20222;-61
2021/12/19 12:16:19;;;;;;;5.57;5.07;;;;;;;4.58;100.00;101591.97;5026854;28;20202;-56
2021/12/19 12:18:44;;;;;;;5.43;4.93;;;;;;;4.54;100.00;101583.28;5031027;28;20199;-56
2021/12/19 12:21:24;;;;;;;5.73;5.23;;;;;;;4.54;100.00;101583.28;5032566;28;20310;-55
2021/12/19 12:23:56;;;;;;;5.53;5.03;;;;;;;4.54;100.00;101569.56;5026983;28;20548;-55